sensor_id;sensor_type;location;lat;lon;timestamp;temperature;humidity
15203;DHT22;7702;51.046;5.184;2023-07-24T00:01:58;17.90;99.90
15203;DHT22;7702;51.046;5.184;2023-07-24T00:04:24;17.90;99.90
15203;DHT22;7702;51.046;5.184;2023-07-24T00:06:49;17.90;99.90
15203;DHT22;7702;51.046;5.184;2023-07-24T00:09:15;17.90;99.90
15203;DHT22;7702;51.046;5.184;2023-07-24T00:11:41;17.90;99.90
15203;DHT22;7702;51.046;5.184;2023-07-24T00:14:07;17.90;99.90
15203;DHT22;7702;51.046;5.184;2023-07-24T00:16:33;17.80;99.90
15203;DHT22;7702;51.046;5.184;2023-07-24T00:18:59;17.90;99.90
15203;DHT22;7702;51.046;5.184;2023-07-24T00:21:25;17.90;99.90
15203;DHT22;7702;51.046;5.184;2023-07-24T00:23:51;17.90;99.90
15203;DHT22;7702;51.046;5.184;2023-07-24T00:26:16;18.00;99.90
15203;DHT22;7702;51.046;5.184;2023-07-24T00:28:42;18.00;99.90
15203;DHT22;7702;51.046;5.184;2023-07-24T00:31:08;18.00;99.90
15203;DHT22;7702;51.046;5.184;2023-07-24T00:33:33;18.00;99.90
15203;DHT22;7702;51.046;5.184;2023-07-24T00:35:59;17.90;99.90
15203;DHT22;7702;51.046;5.184;2023-07-24T00:38:25;17.90;99.90
15203;DHT22;7702;51.046;5.184;2023-07-24T00:40:51;18.00;99.90
15203;DHT22;7702;51.046;5.184;2023-07-24T00:43:16;18.00;99.90
15203;DHT22;7702;51.046;5.184;2023-07-24T00:45:43;18.00;99.90
15203;DHT22;7702;51.046;5.184;2023-07-24T00:48:10;18.10;99.90
15203;DHT22;7702;51.046;5.184;2023-07-24T00:50:37;18.10;99.90
15203;DHT22;7702;51.046;5.184;2023-07-24T00:53:03;18.10;99.90
15203;DHT22;7702;51.046;5.184;2023-07-24T00:55:30;18.10;99.90
15203;DHT22;7702;51.046;5.184;2023-07-24T00:57:58;18.10;99.90
15203;DHT22;7702;51.046;5.184;2023-07-24T01:00:24;18.10;99.90
15203;DHT22;7702;51.046;5.184;2023-07-24T01:02:49;18.10;99.90
15203;DHT22;7702;51.046;5.184;2023-07-24T01:05:16;18.10;99.90
15203;DHT22;7702;51.046;5.184;2023-07-24T01:07:42;18.10;99.90
15203;DHT22;7702;51.046;5.184;2023-07-24T01:10:08;18.10;99.90
15203;DHT22;7702;51.046;5.184;2023-07-24T01:18:01;18.10;99.90
15203;DHT22;7702;51.046;5.184;2023-07-24T01:20:29;18.20;99.90
15203;DHT22;7702;51.046;5.184;2023-07-24T01:23:23;18.10;99.90
15203;DHT22;7702;51.046;5.184;2023-07-24T01:28:21;18.20;99.90
15203;DHT22;7702;51.046;5.184;2023-07-24T01:30:47;18.20;99.90
15203;DHT22;7702;51.046;5.184;2023-07-24T01:33:13;18.20;99.90
15203;DHT22;7702;51.046;5.184;2023-07-24T01:35:42;18.20;99.90
15203;DHT22;7702;51.046;5.184;2023-07-24T01:38:10;18.20;99.90
15203;DHT22;7702;51.046;5.184;2023-07-24T01:40:38;18.20;99.90
15203;DHT22;7702;51.046;5.184;2023-07-24T01:43:05;18.20;99.90
15203;DHT22;7702;51.046;5.184;2023-07-24T01:45:30;18.20;99.90
15203;DHT22;7702;51.046;5.184;2023-07-24T01:47:57;18.20;99.90
15203;DHT22;7702;51.046;5.184;2023-07-24T01:50:23;18.20;99.90
15203;DHT22;7702;51.046;5.184;2023-07-24T01:52:49;18.20;99.90
15203;DHT22;7702;51.046;5.184;2023-07-24T01:55:14;18.30;99.90
15203;DHT22;7702;51.046;5.184;2023-07-24T01:57:40;18.30;99.90
15203;DHT22;7702;51.046;5.184;2023-07-24T02:00:06;18.30;99.90
15203;DHT22;7702;51.046;5.184;2023-07-24T02:02:32;18.30;99.90
15203;DHT22;7702;51.046;5.184;2023-07-24T02:04:57;18.30;99.90
15203;DHT22;7702;51.046;5.184;2023-07-24T02:07:23;18.20;99.90
15203;DHT22;7702;51.046;5.184;2023-07-24T02:09:49;18.30;99.90
15203;DHT22;7702;51.046;5.184;2023-07-24T02:12:15;18.30;99.90
15203;DHT22;7702;51.046;5.184;2023-07-24T02:14:41;18.30;99.90
15203;DHT22;7702;51.046;5.184;2023-07-24T02:17:07;18.30;99.90
15203;DHT22;7702;51.046;5.184;2023-07-24T02:19:33;18.30;99.90
15203;DHT22;7702;51.046;5.184;2023-07-24T02:21:58;18.30;99.90
15203;DHT22;7702;51.046;5.184;2023-07-24T02:24:24;18.20;99.90
15203;DHT22;7702;51.046;5.184;2023-07-24T02:26:50;18.20;99.90
15203;DHT22;7702;51.046;5.184;2023-07-24T02:29:15;18.20;99.90
15203;DHT22;7702;51.046;5.184;2023-07-24T02:31:41;18.20;99.90
15203;DHT22;7702;51.046;5.184;2023-07-24T02:34:07;18.10;99.90
15203;DHT22;7702;51.046;5.184;2023-07-24T02:36:32;18.10;99.90
15203;DHT22;7702;51.046;5.184;2023-07-24T02:38:58;18.10;99.90
15203;DHT22;7702;51.046;5.184;2023-07-24T02:41:24;18.10;99.90
15203;DHT22;7702;51.046;5.184;2023-07-24T02:43:49;18.10;99.90
15203;DHT22;7702;51.046;5.184;2023-07-24T02:46:15;18.10;99.90
15203;DHT22;7702;51.046;5.184;2023-07-24T02:48:40;18.10;99.90
15203;DHT22;7702;51.046;5.184;2023-07-24T02:51:06;18.10;99.90
15203;DHT22;7702;51.046;5.184;2023-07-24T02:53:32;18.00;99.90
15203;DHT22;7702;51.046;5.184;2023-07-24T02:55:58;18.10;99.90
15203;DHT22;7702;51.046;5.184;2023-07-24T02:58:25;18.00;99.90
15203;DHT22;7702;51.046;5.184;2023-07-24T03:00:51;18.00;99.90
15203;DHT22;7702;51.046;5.184;2023-07-24T03:03:17;18.00;99.90
15203;DHT22;7702;51.046;5.184;2023-07-24T03:05:43;18.00;99.90
15203;DHT22;7702;51.046;5.184;2023-07-24T03:08:08;18.00;99.90
15203;DHT22;7702;51.046;5.184;2023-07-24T03:10:34;18.00;99.90
15203;DHT22;7702;51.046;5.184;2023-07-24T03:13:00;18.00;99.90
15203;DHT22;7702;51.046;5.184;2023-07-24T03:15:25;18.00;99.90
15203;DHT22;7702;51.046;5.184;2023-07-24T03:17:51;18.00;99.90
15203;DHT22;7702;51.046;5.184;2023-07-24T03:20:18;18.00;99.90
15203;DHT22;7702;51.046;5.184;2023-07-24T03:22:44;17.90;99.90
15203;DHT22;7702;51.046;5.184;2023-07-24T03:25:10;18.00;99.90
15203;DHT22;7702;51.046;5.184;2023-07-24T03:27:36;18.00;99.90
15203;DHT22;7702;51.046;5.184;2023-07-24T03:30:01;17.90;99.90
15203;DHT22;7702;51.046;5.184;2023-07-24T03:32:28;17.90;99.90
15203;DHT22;7702;51.046;5.184;2023-07-24T03:34:54;17.90;99.90
15203;DHT22;7702;51.046;5.184;2023-07-24T03:37:20;17.90;99.90
15203;DHT22;7702;51.046;5.184;2023-07-24T03:39:45;17.90;99.90
15203;DHT22;7702;51.046;5.184;2023-07-24T03:42:11;17.90;99.90
15203;DHT22;7702;51.046;5.184;2023-07-24T03:44:40;17.90;99.90
15203;DHT22;7702;51.046;5.184;2023-07-24T03:47:06;17.90;99.90
15203;DHT22;7702;51.046;5.184;2023-07-24T03:49:32;17.90;99.90
15203;DHT22;7702;51.046;5.184;2023-07-24T03:51:57;17.90;99.90
15203;DHT22;7702;51.046;5.184;2023-07-24T03:54:23;17.90;99.90
15203;DHT22;7702;51.046;5.184;2023-07-24T03:56:49;17.80;99.90
15203;DHT22;7702;51.046;5.184;2023-07-24T03:59:14;17.80;99.90
15203;DHT22;7702;51.046;5.184;2023-07-24T04:01:40;17.80;99.90
15203;DHT22;7702;51.046;5.184;2023-07-24T04:04:06;17.80;99.90
15203;DHT22;7702;51.046;5.184;2023-07-24T04:06:31;17.90;99.90
15203;DHT22;7702;51.046;5.184;2023-07-24T04:08:57;17.80;99.90
15203;DHT22;7702;51.046;5.184;2023-07-24T04:11:23;17.60;99.90
15203;DHT22;7702;51.046;5.184;2023-07-24T04:13:49;16.90;99.90
15203;DHT22;7702;51.046;5.184;2023-07-24T04:16:14;16.70;99.90
15203;DHT22;7702;51.046;5.184;2023-07-24T04:18:40;16.60;99.90
15203;DHT22;7702;51.046;5.184;2023-07-24T04:21:06;16.70;99.90
15203;DHT22;7702;51.046;5.184;2023-07-24T04:23:32;16.60;99.90
15203;DHT22;7702;51.046;5.184;2023-07-24T04:25:58;16.50;99.90
15203;DHT22;7702;51.046;5.184;2023-07-24T04:28:23;16.50;99.90
15203;DHT22;7702;51.046;5.184;2023-07-24T04:30:49;16.60;99.90
15203;DHT22;7702;51.046;5.184;2023-07-24T04:33:14;16.60;99.90
15203;DHT22;7702;51.046;5.184;2023-07-24T04:35:40;16.70;99.90
15203;DHT22;7702;51.046;5.184;2023-07-24T04:38:06;16.70;99.90
15203;DHT22;7702;51.046;5.184;2023-07-24T04:40:32;16.70;99.90
15203;DHT22;7702;51.046;5.184;2023-07-24T04:42:58;16.70;99.90
15203;DHT22;7702;51.046;5.184;2023-07-24T04:45:24;16.70;99.90
15203;DHT22;7702;51.046;5.184;2023-07-24T04:47:49;16.70;99.90
15203;DHT22;7702;51.046;5.184;2023-07-24T04:50:15;16.70;99.90
15203;DHT22;7702;51.046;5.184;2023-07-24T04:52:41;16.60;99.90
15203;DHT22;7702;51.046;5.184;2023-07-24T04:55:07;16.70;99.90
15203;DHT22;7702;51.046;5.184;2023-07-24T04:57:33;16.70;99.90
15203;DHT22;7702;51.046;5.184;2023-07-24T04:59:58;16.70;99.90
15203;DHT22;7702;51.046;5.184;2023-07-24T05:02:24;16.70;99.90
15203;DHT22;7702;51.046;5.184;2023-07-24T05:04:50;16.70;99.90
15203;DHT22;7702;51.046;5.184;2023-07-24T05:07:15;16.60;99.90
15203;DHT22;7702;51.046;5.184;2023-07-24T05:09:41;16.80;99.90
15203;DHT22;7702;51.046;5.184;2023-07-24T05:12:07;16.80;99.90
15203;DHT22;7702;51.046;5.184;2023-07-24T05:14:32;16.80;99.90
15203;DHT22;7702;51.046;5.184;2023-07-24T05:16:58;16.90;99.90
15203;DHT22;7702;51.046;5.184;2023-07-24T05:19:24;17.00;99.90
15203;DHT22;7702;51.046;5.184;2023-07-24T05:21:50;17.00;99.90
15203;DHT22;7702;51.046;5.184;2023-07-24T05:24:16;17.00;99.90
15203;DHT22;7702;51.046;5.184;2023-07-24T05:26:41;17.10;99.90
15203;DHT22;7702;51.046;5.184;2023-07-24T05:29:07;17.20;99.90
15203;DHT22;7702;51.046;5.184;2023-07-24T05:31:34;17.30;99.90
15203;DHT22;7702;51.046;5.184;2023-07-24T05:34:01;17.30;99.90
15203;DHT22;7702;51.046;5.184;2023-07-24T05:36:27;17.30;99.90
15203;DHT22;7702;51.046;5.184;2023-07-24T05:38:53;17.40;99.90
15203;DHT22;7702;51.046;5.184;2023-07-24T05:41:19;17.40;99.90
15203;DHT22;7702;51.046;5.184;2023-07-24T05:43:44;17.50;99.90
15203;DHT22;7702;51.046;5.184;2023-07-24T05:46:10;17.50;99.90
15203;DHT22;7702;51.046;5.184;2023-07-24T05:48:36;17.60;99.90
15203;DHT22;7702;51.046;5.184;2023-07-24T05:51:01;17.60;99.90
15203;DHT22;7702;51.046;5.184;2023-07-24T05:53:27;17.60;99.90
15203;DHT22;7702;51.046;5.184;2023-07-24T05:56:01;17.60;99.90
15203;DHT22;7702;51.046;5.184;2023-07-24T05:58:27;17.60;99.90
15203;DHT22;7702;51.046;5.184;2023-07-24T06:00:53;17.70;99.90
15203;DHT22;7702;51.046;5.184;2023-07-24T06:03:20;17.80;99.90
15203;DHT22;7702;51.046;5.184;2023-07-24T06:05:45;17.80;99.90
15203;DHT22;7702;51.046;5.184;2023-07-24T06:08:11;18.00;99.90
15203;DHT22;7702;51.046;5.184;2023-07-24T06:10:37;18.20;99.90
15203;DHT22;7702;51.046;5.184;2023-07-24T06:13:03;18.20;99.90
15203;DHT22;7702;51.046;5.184;2023-07-24T06:15:28;18.10;99.90
15203;DHT22;7702;51.046;5.184;2023-07-24T06:17:54;18.10;99.90
15203;DHT22;7702;51.046;5.184;2023-07-24T06:20:20;18.20;99.90
15203;DHT22;7702;51.046;5.184;2023-07-24T06:22:46;18.20;99.90
15203;DHT22;7702;51.046;5.184;2023-07-24T06:25:11;18.20;99.90
15203;DHT22;7702;51.046;5.184;2023-07-24T06:27:37;18.30;99.90
15203;DHT22;7702;51.046;5.184;2023-07-24T06:30:03;18.40;99.90
15203;DHT22;7702;51.046;5.184;2023-07-24T06:32:29;18.50;99.90
15203;DHT22;7702;51.046;5.184;2023-07-24T06:34:54;18.50;99.90
15203;DHT22;7702;51.046;5.184;2023-07-24T06:37:20;18.40;99.90
15203;DHT22;7702;51.046;5.184;2023-07-24T06:39:46;18.40;99.90
15203;DHT22;7702;51.046;5.184;2023-07-24T06:42:11;18.40;99.90
15203;DHT22;7702;51.046;5.184;2023-07-24T06:44:37;18.50;99.90
15203;DHT22;7702;51.046;5.184;2023-07-24T06:47:03;18.50;99.90
15203;DHT22;7702;51.046;5.184;2023-07-24T06:49:29;18.40;99.90
15203;DHT22;7702;51.046;5.184;2023-07-24T06:51:54;18.40;99.90
15203;DHT22;7702;51.046;5.184;2023-07-24T06:54:20;18.40;99.90
15203;DHT22;7702;51.046;5.184;2023-07-24T06:56:46;18.40;99.90
15203;DHT22;7702;51.046;5.184;2023-07-24T06:59:11;18.50;99.90
15203;DHT22;7702;51.046;5.184;2023-07-24T07:01:37;18.50;99.90
15203;DHT22;7702;51.046;5.184;2023-07-24T07:04:03;18.50;99.90
15203;DHT22;7702;51.046;5.184;2023-07-24T07:06:28;18.60;99.90
15203;DHT22;7702;51.046;5.184;2023-07-24T07:08:54;18.60;99.90
15203;DHT22;7702;51.046;5.184;2023-07-24T07:11:20;18.80;99.90
15203;DHT22;7702;51.046;5.184;2023-07-24T07:13:45;18.90;99.90
15203;DHT22;7702;51.046;5.184;2023-07-24T07:16:11;18.90;99.90
15203;DHT22;7702;51.046;5.184;2023-07-24T07:18:37;19.00;99.90
15203;DHT22;7702;51.046;5.184;2023-07-24T07:21:02;19.20;99.90
15203;DHT22;7702;51.046;5.184;2023-07-24T07:23:28;19.20;99.90
15203;DHT22;7702;51.046;5.184;2023-07-24T07:25:54;19.20;99.90
15203;DHT22;7702;51.046;5.184;2023-07-24T07:28:19;19.30;99.90
15203;DHT22;7702;51.046;5.184;2023-07-24T07:30:45;19.40;99.90
15203;DHT22;7702;51.046;5.184;2023-07-24T07:33:11;19.40;99.90
15203;DHT22;7702;51.046;5.184;2023-07-24T07:35:37;19.50;99.90
15203;DHT22;7702;51.046;5.184;2023-07-24T07:38:03;19.50;99.90
15203;DHT22;7702;51.046;5.184;2023-07-24T07:40:29;19.60;99.90
15203;DHT22;7702;51.046;5.184;2023-07-24T07:42:55;20.10;99.90
15203;DHT22;7702;51.046;5.184;2023-07-24T07:45:22;20.40;99.90
15203;DHT22;7702;51.046;5.184;2023-07-24T07:47:48;20.40;99.90
15203;DHT22;7702;51.046;5.184;2023-07-24T07:50:14;20.40;99.90
15203;DHT22;7702;51.046;5.184;2023-07-24T07:52:39;20.50;99.90
15203;DHT22;7702;51.046;5.184;2023-07-24T07:55:06;20.50;99.90
15203;DHT22;7702;51.046;5.184;2023-07-24T07:57:35;20.50;99.90
15203;DHT22;7702;51.046;5.184;2023-07-24T08:00:02;20.80;99.90
15203;DHT22;7702;51.046;5.184;2023-07-24T08:02:28;20.90;99.90
15203;DHT22;7702;51.046;5.184;2023-07-24T08:04:54;21.00;99.90
15203;DHT22;7702;51.046;5.184;2023-07-24T08:07:19;20.90;99.90
15203;DHT22;7702;51.046;5.184;2023-07-24T08:09:46;20.80;99.90
15203;DHT22;7702;51.046;5.184;2023-07-24T08:12:11;20.70;99.90
15203;DHT22;7702;51.046;5.184;2023-07-24T08:14:38;20.60;99.90
15203;DHT22;7702;51.046;5.184;2023-07-24T08:17:03;20.60;99.90
15203;DHT22;7702;51.046;5.184;2023-07-24T08:19:29;20.60;99.90
15203;DHT22;7702;51.046;5.184;2023-07-24T08:21:55;20.50;99.90
15203;DHT22;7702;51.046;5.184;2023-07-24T08:24:21;20.30;99.90
15203;DHT22;7702;51.046;5.184;2023-07-24T08:26:46;20.30;99.90
15203;DHT22;7702;51.046;5.184;2023-07-24T08:29:12;20.40;99.90
15203;DHT22;7702;51.046;5.184;2023-07-24T08:31:38;20.70;99.90
15203;DHT22;7702;51.046;5.184;2023-07-24T08:34:04;21.30;99.90
15203;DHT22;7702;51.046;5.184;2023-07-24T08:36:29;21.60;99.90
15203;DHT22;7702;51.046;5.184;2023-07-24T08:38:55;22.10;99.90
15203;DHT22;7702;51.046;5.184;2023-07-24T08:41:21;22.40;99.90
15203;DHT22;7702;51.046;5.184;2023-07-24T08:43:47;22.50;99.90
15203;DHT22;7702;51.046;5.184;2023-07-24T08:46:12;22.60;99.90
15203;DHT22;7702;51.046;5.184;2023-07-24T08:48:40;22.20;99.90
15203;DHT22;7702;51.046;5.184;2023-07-24T08:51:07;22.00;99.90
15203;DHT22;7702;51.046;5.184;2023-07-24T08:53:37;21.60;99.90
15203;DHT22;7702;51.046;5.184;2023-07-24T08:56:04;21.70;99.90
15203;DHT22;7702;51.046;5.184;2023-07-24T08:58:30;22.10;99.90
15203;DHT22;7702;51.046;5.184;2023-07-24T09:00:57;22.00;99.90
15203;DHT22;7702;51.046;5.184;2023-07-24T09:03:23;22.10;99.90
15203;DHT22;7702;51.046;5.184;2023-07-24T09:05:49;22.10;99.90
15203;DHT22;7702;51.046;5.184;2023-07-24T09:08:15;22.00;99.90
15203;DHT22;7702;51.046;5.184;2023-07-24T09:10:40;21.90;99.90
15203;DHT22;7702;51.046;5.184;2023-07-24T09:13:06;21.70;99.90
15203;DHT22;7702;51.046;5.184;2023-07-24T09:15:42;22.00;99.90
15203;DHT22;7702;51.046;5.184;2023-07-24T09:18:09;22.00;99.90
15203;DHT22;7702;51.046;5.184;2023-07-24T09:20:43;21.80;99.90
15203;DHT22;7702;51.046;5.184;2023-07-24T09:23:10;21.80;99.90
15203;DHT22;7702;51.046;5.184;2023-07-24T09:25:38;21.90;99.90
15203;DHT22;7702;51.046;5.184;2023-07-24T09:28:18;21.70;99.90
15203;DHT22;7702;51.046;5.184;2023-07-24T09:30:57;21.60;99.90
15203;DHT22;7702;51.046;5.184;2023-07-24T09:33:39;21.30;99.90
15203;DHT22;7702;51.046;5.184;2023-07-24T09:36:06;21.10;99.90
15203;DHT22;7702;51.046;5.184;2023-07-24T09:38:35;20.80;99.90
15203;DHT22;7702;51.046;5.184;2023-07-24T09:41:02;20.70;99.90
15203;DHT22;7702;51.046;5.184;2023-07-24T09:43:28;20.60;99.90
15203;DHT22;7702;51.046;5.184;2023-07-24T09:45:55;20.20;99.90
15203;DHT22;7702;51.046;5.184;2023-07-24T09:48:23;19.90;99.90
15203;DHT22;7702;51.046;5.184;2023-07-24T09:50:53;19.60;99.90
15203;DHT22;7702;51.046;5.184;2023-07-24T09:54:24;19.50;99.90
15203;DHT22;7702;51.046;5.184;2023-07-24T09:56:17;19.40;99.90
15203;DHT22;7702;51.046;5.184;2023-07-24T09:58:44;19.40;99.90
15203;DHT22;7702;51.046;5.184;2023-07-24T10:01:11;19.30;99.90
15203;DHT22;7702;51.046;5.184;2023-07-24T10:03:45;19.20;99.90
15203;DHT22;7702;51.046;5.184;2023-07-24T10:06:11;19.20;99.90
15203;DHT22;7702;51.046;5.184;2023-07-24T10:08:38;19.20;99.90
15203;DHT22;7702;51.046;5.184;2023-07-24T10:11:04;19.00;99.90
15203;DHT22;7702;51.046;5.184;2023-07-24T10:13:30;19.00;99.90
15203;DHT22;7702;51.046;5.184;2023-07-24T10:15:57;18.90;99.90
15203;DHT22;7702;51.046;5.184;2023-07-24T10:18:27;18.90;99.90
15203;DHT22;7702;51.046;5.184;2023-07-24T10:21:05;18.90;99.90
15203;DHT22;7702;51.046;5.184;2023-07-24T10:23:34;19.00;99.90
15203;DHT22;7702;51.046;5.184;2023-07-24T10:26:05;19.00;99.90
15203;DHT22;7702;51.046;5.184;2023-07-24T10:28:38;19.10;99.90
15203;DHT22;7702;51.046;5.184;2023-07-24T10:31:07;19.30;99.90
15203;DHT22;7702;51.046;5.184;2023-07-24T10:33:43;19.40;99.90
15203;DHT22;7702;51.046;5.184;2023-07-24T10:36:09;19.50;99.90
15203;DHT22;7702;51.046;5.184;2023-07-24T10:38:37;19.90;99.90
15203;DHT22;7702;51.046;5.184;2023-07-24T10:41:04;20.20;99.90
15203;DHT22;7702;51.046;5.184;2023-07-24T10:46:05;21.40;99.90
15203;DHT22;7702;51.046;5.184;2023-07-24T10:48:31;21.80;99.90
15203;DHT22;7702;51.046;5.184;2023-07-24T10:50:57;22.10;99.90
15203;DHT22;7702;51.046;5.184;2023-07-24T10:53:23;22.20;99.90
15203;DHT22;7702;51.046;5.184;2023-07-24T10:55:50;22.30;99.90
15203;DHT22;7702;51.046;5.184;2023-07-24T10:58:16;21.90;99.90
15203;DHT22;7702;51.046;5.184;2023-07-24T11:00:45;21.70;99.90
15203;DHT22;7702;51.046;5.184;2023-07-24T11:03:14;21.20;99.90
15203;DHT22;7702;51.046;5.184;2023-07-24T11:05:44;20.80;99.90
15203;DHT22;7702;51.046;5.184;2023-07-24T11:08:14;20.80;99.90
15203;DHT22;7702;51.046;5.184;2023-07-24T11:10:50;20.80;99.90
15203;DHT22;7702;51.046;5.184;2023-07-24T11:13:18;20.80;99.90
15203;DHT22;7702;51.046;5.184;2023-07-24T11:15:44;20.90;99.90
15203;DHT22;7702;51.046;5.184;2023-07-24T11:18:10;21.20;99.90
15203;DHT22;7702;51.046;5.184;2023-07-24T11:20:55;21.20;99.90
15203;DHT22;7702;51.046;5.184;2023-07-24T11:23:21;21.30;99.90
15203;DHT22;7702;51.046;5.184;2023-07-24T11:25:50;21.40;99.90
15203;DHT22;7702;51.046;5.184;2023-07-24T11:28:17;21.60;99.90
15203;DHT22;7702;51.046;5.184;2023-07-24T11:30:43;21.50;99.90
15203;DHT22;7702;51.046;5.184;2023-07-24T11:33:14;21.50;99.90
15203;DHT22;7702;51.046;5.184;2023-07-24T11:35:41;21.70;99.90
15203;DHT22;7702;51.046;5.184;2023-07-24T11:38:10;21.10;99.90
15203;DHT22;7702;51.046;5.184;2023-07-24T11:40:37;20.80;99.90
15203;DHT22;7702;51.046;5.184;2023-07-24T11:43:04;20.60;99.90
15203;DHT22;7702;51.046;5.184;2023-07-24T11:45:30;21.30;99.90
15203;DHT22;7702;51.046;5.184;2023-07-24T11:47:56;22.10;99.90
15203;DHT22;7702;51.046;5.184;2023-07-24T11:50:23;22.30;99.90
15203;DHT22;7702;51.046;5.184;2023-07-24T11:52:50;22.30;99.90
15203;DHT22;7702;51.046;5.184;2023-07-24T11:55:32;22.30;99.90
15203;DHT22;7702;51.046;5.184;2023-07-24T11:57:58;21.80;99.90
15203;DHT22;7702;51.046;5.184;2023-07-24T12:00:24;21.70;99.90
15203;DHT22;7702;51.046;5.184;2023-07-24T12:02:50;21.60;99.90
15203;DHT22;7702;51.046;5.184;2023-07-24T12:05:16;20.70;99.90
15203;DHT22;7702;51.046;5.184;2023-07-24T12:07:43;20.10;99.90
15203;DHT22;7702;51.046;5.184;2023-07-24T12:10:12;19.70;99.90
15203;DHT22;7702;51.046;5.184;2023-07-24T12:15:04;19.40;99.90
15203;DHT22;7702;51.046;5.184;2023-07-24T12:17:30;19.20;99.90
15203;DHT22;7702;51.046;5.184;2023-07-24T12:19:56;19.10;99.90
15203;DHT22;7702;51.046;5.184;2023-07-24T12:22:21;18.90;99.90
15203;DHT22;7702;51.046;5.184;2023-07-24T12:24:47;18.70;99.90
15203;DHT22;7702;51.046;5.184;2023-07-24T12:27:13;18.60;99.90
15203;DHT22;7702;51.046;5.184;2023-07-24T12:29:39;18.80;99.90
15203;DHT22;7702;51.046;5.184;2023-07-24T12:32:04;19.00;99.90
15203;DHT22;7702;51.046;5.184;2023-07-24T12:34:30;19.20;99.90
15203;DHT22;7702;51.046;5.184;2023-07-24T12:36:56;19.30;99.90
15203;DHT22;7702;51.046;5.184;2023-07-24T12:39:21;19.40;99.90
15203;DHT22;7702;51.046;5.184;2023-07-24T12:41:47;19.40;99.90
15203;DHT22;7702;51.046;5.184;2023-07-24T12:44:13;19.30;99.90
15203;DHT22;7702;51.046;5.184;2023-07-24T12:46:38;19.30;99.90
15203;DHT22;7702;51.046;5.184;2023-07-24T12:49:04;19.40;99.90
15203;DHT22;7702;51.046;5.184;2023-07-24T12:51:30;19.50;99.90
15203;DHT22;7702;51.046;5.184;2023-07-24T12:53:56;19.40;99.90
15203;DHT22;7702;51.046;5.184;2023-07-24T12:56:22;19.30;99.90
15203;DHT22;7702;51.046;5.184;2023-07-24T12:58:48;19.40;99.90
15203;DHT22;7702;51.046;5.184;2023-07-24T13:01:14;19.50;99.90
15203;DHT22;7702;51.046;5.184;2023-07-24T13:03:39;19.60;99.90
15203;DHT22;7702;51.046;5.184;2023-07-24T13:06:05;19.60;99.90
15203;DHT22;7702;51.046;5.184;2023-07-24T13:08:30;19.90;99.90
15203;DHT22;7702;51.046;5.184;2023-07-24T13:10:56;20.20;99.90
15203;DHT22;7702;51.046;5.184;2023-07-24T13:13:22;20.90;99.90
15203;DHT22;7702;51.046;5.184;2023-07-24T13:15:47;21.10;99.90
15203;DHT22;7702;51.046;5.184;2023-07-24T13:18:16;21.30;99.90
15203;DHT22;7702;51.046;5.184;2023-07-24T13:20:42;21.30;99.90
15203;DHT22;7702;51.046;5.184;2023-07-24T13:23:08;21.10;99.90
15203;DHT22;7702;51.046;5.184;2023-07-24T13:25:33;21.30;99.90
15203;DHT22;7702;51.046;5.184;2023-07-24T13:27:59;21.40;99.90
15203;DHT22;7702;51.046;5.184;2023-07-24T13:30:25;21.60;99.90
15203;DHT22;7702;51.046;5.184;2023-07-24T13:32:50;21.90;99.90
15203;DHT22;7702;51.046;5.184;2023-07-24T13:35:17;22.30;99.90
15203;DHT22;7702;51.046;5.184;2023-07-24T13:37:42;22.50;99.90
15203;DHT22;7702;51.046;5.184;2023-07-24T13:40:08;22.70;99.90
15203;DHT22;7702;51.046;5.184;2023-07-24T13:42:34;22.70;99.90
15203;DHT22;7702;51.046;5.184;2023-07-24T13:45:00;22.80;99.90
15203;DHT22;7702;51.046;5.184;2023-07-24T13:47:25;22.80;99.90
15203;DHT22;7702;51.046;5.184;2023-07-24T13:49:51;23.00;99.90
15203;DHT22;7702;51.046;5.184;2023-07-24T13:52:17;23.40;99.90
15203;DHT22;7702;51.046;5.184;2023-07-24T13:54:42;23.50;99.90
15203;DHT22;7702;51.046;5.184;2023-07-24T13:57:08;23.30;99.90
15203;DHT22;7702;51.046;5.184;2023-07-24T13:59:35;23.10;99.90
15203;DHT22;7702;51.046;5.184;2023-07-24T14:02:01;22.60;99.90
15203;DHT22;7702;51.046;5.184;2023-07-24T14:04:26;22.40;99.90
15203;DHT22;7702;51.046;5.184;2023-07-24T14:06:52;22.20;99.90
15203;DHT22;7702;51.046;5.184;2023-07-24T14:09:18;22.10;99.90
15203;DHT22;7702;51.046;5.184;2023-07-24T14:11:43;22.10;99.90
15203;DHT22;7702;51.046;5.184;2023-07-24T14:14:10;22.10;99.90
15203;DHT22;7702;51.046;5.184;2023-07-24T14:16:36;22.20;99.90
15203;DHT22;7702;51.046;5.184;2023-07-24T14:19:02;22.60;99.90
15203;DHT22;7702;51.046;5.184;2023-07-24T14:21:28;23.20;99.90
15203;DHT22;7702;51.046;5.184;2023-07-24T14:23:53;23.50;99.90
15203;DHT22;7702;51.046;5.184;2023-07-24T14:26:19;22.80;99.90
15203;DHT22;7702;51.046;5.184;2023-07-24T14:28:44;22.70;99.90
15203;DHT22;7702;51.046;5.184;2023-07-24T14:31:10;23.00;99.90
15203;DHT22;7702;51.046;5.184;2023-07-24T14:33:36;23.30;99.90
15203;DHT22;7702;51.046;5.184;2023-07-24T14:36:02;23.70;99.90
15203;DHT22;7702;51.046;5.184;2023-07-24T14:38:28;23.70;99.90
15203;DHT22;7702;51.046;5.184;2023-07-24T14:40:53;23.00;99.90
15203;DHT22;7702;51.046;5.184;2023-07-24T14:43:19;22.70;99.90
15203;DHT22;7702;51.046;5.184;2023-07-24T14:45:44;22.70;99.90
15203;DHT22;7702;51.046;5.184;2023-07-24T14:48:10;22.60;99.90
15203;DHT22;7702;51.046;5.184;2023-07-24T14:50:38;22.40;99.90
15203;DHT22;7702;51.046;5.184;2023-07-24T14:53:04;22.60;99.90
15203;DHT22;7702;51.046;5.184;2023-07-24T14:55:30;22.70;99.90
15203;DHT22;7702;51.046;5.184;2023-07-24T14:57:56;22.80;99.90
15203;DHT22;7702;51.046;5.184;2023-07-24T15:00:21;22.70;99.90
15203;DHT22;7702;51.046;5.184;2023-07-24T15:02:47;22.10;99.90
15203;DHT22;7702;51.046;5.184;2023-07-24T15:05:13;20.90;99.90
15203;DHT22;7702;51.046;5.184;2023-07-24T15:07:38;20.00;99.90
15203;DHT22;7702;51.046;5.184;2023-07-24T15:10:04;19.30;99.90
15203;DHT22;7702;51.046;5.184;2023-07-24T15:12:30;18.80;99.90
15203;DHT22;7702;51.046;5.184;2023-07-24T15:14:56;18.70;99.90
15203;DHT22;7702;51.046;5.184;2023-07-24T15:17:21;18.50;99.90
15203;DHT22;7702;51.046;5.184;2023-07-24T15:19:47;18.20;99.90
15203;DHT22;7702;51.046;5.184;2023-07-24T15:22:13;18.00;99.90
15203;DHT22;7702;51.046;5.184;2023-07-24T15:24:40;17.90;99.90
15203;DHT22;7702;51.046;5.184;2023-07-24T15:27:07;17.70;99.90
15203;DHT22;7702;51.046;5.184;2023-07-24T15:29:36;17.60;99.90
15203;DHT22;7702;51.046;5.184;2023-07-24T15:32:02;17.50;99.90
15203;DHT22;7702;51.046;5.184;2023-07-24T15:34:28;17.40;99.90
15203;DHT22;7702;51.046;5.184;2023-07-24T15:36:55;17.30;99.90
15203;DHT22;7702;51.046;5.184;2023-07-24T15:39:20;17.20;99.90
15203;DHT22;7702;51.046;5.184;2023-07-24T15:41:46;17.10;99.90
15203;DHT22;7702;51.046;5.184;2023-07-24T15:44:12;16.90;99.90
15203;DHT22;7702;51.046;5.184;2023-07-24T15:46:37;17.00;99.90
15203;DHT22;7702;51.046;5.184;2023-07-24T15:49:03;17.10;99.90
15203;DHT22;7702;51.046;5.184;2023-07-24T15:51:29;17.20;99.90
15203;DHT22;7702;51.046;5.184;2023-07-24T15:53:58;17.30;99.90